In Rescue
 
Open Full Screen Window  High Contrast Mode
Wind Gusting 17 knots
11
May 20, 2019 2:57 PM EDT
Weather Information
Wind Direction
  280 °
Wind Speed
  11 kt (13 mph)
Wind Gust
  17 kt (20 mph)
Altimeter
29.96 in
Visibility
10 SM
Temperature
13° C
55° F
Dewpoint
06° C
43° F
Humidity
63%
1hr Rain Fall
00.01 in.
24hr Rain Fall
00.46 in.
Sky Condition
Overcast @ 3,900 ft
VFR

METAR KONZ 201857Z AUTO 28011G17KT 10SM OVC039 13/06 A2996 RMK AO2 P0001 T01340062

FAA Disclaimer: The data displayed is for advisory purposes only and is not to be used for flight planning or operations.